sensor_id;sensor_type;location;lat;lon;timestamp;P1;durP1;ratioP1;P2;durP2;ratioP2
40022;SDS011;25713;-35.352;149.036;2023-07-29T00:00:34;4.38;;;1.90;;
40022;SDS011;25713;-35.352;149.036;2023-07-29T00:03:04;3.78;;;2.28;;
40022;SDS011;25713;-35.352;149.036;2023-07-29T00:05:33;1.95;;;1.65;;
40022;SDS011;25713;-35.352;149.036;2023-07-29T00:08:03;2.85;;;2.20;;
40022;SDS011;25713;-35.352;149.036;2023-07-29T00:10:34;2.60;;;2.20;;
40022;SDS011;25713;-35.352;149.036;2023-07-29T00:13:07;2.92;;;2.20;;
40022;SDS011;25713;-35.352;149.036;2023-07-29T00:15:38;3.25;;;2.47;;
40022;SDS011;25713;-35.352;149.036;2023-07-29T00:18:07;3.83;;;1.95;;
40022;SDS011;25713;-35.352;149.036;2023-07-29T00:20:37;2.53;;;1.70;;
40022;SDS011;25713;-35.352;149.036;2023-07-29T00:23:07;4.05;;;2.20;;
40022;SDS011;25713;-35.352;149.036;2023-07-29T00:25:38;4.70;;;2.60;;
40022;SDS011;25713;-35.352;149.036;2023-07-29T00:28:08;5.05;;;2.50;;
40022;SDS011;25713;-35.352;149.036;2023-07-29T00:30:38;6.18;;;2.40;;
40022;SDS011;25713;-35.352;149.036;2023-07-29T00:33:08;3.58;;;2.22;;
40022;SDS011;25713;-35.352;149.036;2023-07-29T00:35:39;3.25;;;1.98;;
40022;SDS011;25713;-35.352;149.036;2023-07-29T00:38:08;2.63;;;1.92;;
40022;SDS011;25713;-35.352;149.036;2023-07-29T00:40:40;3.95;;;1.63;;
40022;SDS011;25713;-35.352;149.036;2023-07-29T00:43:11;2.33;;;1.60;;
40022;SDS011;25713;-35.352;149.036;2023-07-29T00:45:40;4.88;;;1.67;;
40022;SDS011;25713;-35.352;149.036;2023-07-29T00:48:14;2.75;;;1.27;;
40022;SDS011;25713;-35.352;149.036;2023-07-29T00:50:44;3.65;;;1.80;;
40022;SDS011;25713;-35.352;149.036;2023-07-29T00:53:13;3.13;;;1.25;;
40022;SDS011;25713;-35.352;149.036;2023-07-29T00:55:45;2.55;;;1.35;;
40022;SDS011;25713;-35.352;149.036;2023-07-29T00:58:16;3.30;;;1.10;;
40022;SDS011;25713;-35.352;149.036;2023-07-29T01:00:46;2.08;;;1.40;;
40022;SDS011;25713;-35.352;149.036;2023-07-29T01:03:16;4.65;;;1.13;;
40022;SDS011;25713;-35.352;149.036;2023-07-29T01:05:48;3.33;;;1.17;;
40022;SDS011;25713;-35.352;149.036;2023-07-29T01:08:28;1.67;;;1.17;;
40022;SDS011;25713;-35.352;149.036;2023-07-29T01:11:11;2.13;;;1.15;;
40022;SDS011;25713;-35.352;149.036;2023-07-29T01:13:50;1.90;;;0.95;;
40022;SDS011;25713;-35.352;149.036;2023-07-29T01:16:24;2.33;;;0.98;;
40022;SDS011;25713;-35.352;149.036;2023-07-29T01:18:58;2.47;;;1.10;;
40022;SDS011;25713;-35.352;149.036;2023-07-29T01:21:33;2.25;;;1.17;;
40022;SDS011;25713;-35.352;149.036;2023-07-29T01:24:06;2.25;;;1.15;;
40022;SDS011;25713;-35.352;149.036;2023-07-29T01:26:36;3.03;;;1.40;;
40022;SDS011;25713;-35.352;149.036;2023-07-29T01:29:06;1.90;;;1.02;;
40022;SDS011;25713;-35.352;149.036;2023-07-29T01:31:37;2.78;;;1.00;;
40022;SDS011;25713;-35.352;149.036;2023-07-29T01:34:12;2.53;;;1.17;;
40022;SDS011;25713;-35.352;149.036;2023-07-29T01:36:50;2.08;;;1.15;;
40022;SDS011;25713;-35.352;149.036;2023-07-29T01:39:24;1.83;;;1.10;;
40022;SDS011;25713;-35.352;149.036;2023-07-29T01:41:57;2.25;;;1.20;;
40022;SDS011;25713;-35.352;149.036;2023-07-29T01:44:29;1.73;;;1.40;;
40022;SDS011;25713;-35.352;149.036;2023-07-29T01:46:59;3.45;;;1.00;;
40022;SDS011;25713;-35.352;149.036;2023-07-29T01:49:29;3.13;;;0.90;;
40022;SDS011;25713;-35.352;149.036;2023-07-29T01:52:00;2.50;;;0.80;;
40022;SDS011;25713;-35.352;149.036;2023-07-29T01:54:32;2.30;;;0.80;;
40022;SDS011;25713;-35.352;149.036;2023-07-29T01:57:01;3.35;;;0.80;;
40022;SDS011;25713;-35.352;149.036;2023-07-29T01:59:32;2.53;;;0.77;;
40022;SDS011;25713;-35.352;149.036;2023-07-29T02:02:01;1.85;;;0.90;;
40022;SDS011;25713;-35.352;149.036;2023-07-29T02:04:31;1.88;;;0.82;;
40022;SDS011;25713;-35.352;149.036;2023-07-29T02:07:00;2.00;;;0.60;;
40022;SDS011;25713;-35.352;149.036;2023-07-29T02:09:32;1.15;;;0.80;;
40022;SDS011;25713;-35.352;149.036;2023-07-29T02:12:01;2.25;;;0.70;;
40022;SDS011;25713;-35.352;149.036;2023-07-29T02:14:38;2.45;;;0.70;;
40022;SDS011;25713;-35.352;149.036;2023-07-29T02:17:08;1.35;;;0.77;;
40022;SDS011;25713;-35.352;149.036;2023-07-29T02:19:37;1.65;;;0.80;;
40022;SDS011;25713;-35.352;149.036;2023-07-29T02:22:06;1.35;;;0.70;;
40022;SDS011;25713;-35.352;149.036;2023-07-29T02:24:38;1.38;;;0.95;;
40022;SDS011;25713;-35.352;149.036;2023-07-29T02:27:08;2.07;;;0.73;;
40022;SDS011;25713;-35.352;149.036;2023-07-29T02:29:37;1.33;;;0.75;;
40022;SDS011;25713;-35.352;149.036;2023-07-29T02:32:07;1.10;;;0.70;;
40022;SDS011;25713;-35.352;149.036;2023-07-29T02:34:36;2.58;;;0.80;;
40022;SDS011;25713;-35.352;149.036;2023-07-29T02:37:06;2.33;;;0.80;;
40022;SDS011;25713;-35.352;149.036;2023-07-29T02:42:08;2.53;;;0.70;;
40022;SDS011;25713;-35.352;149.036;2023-07-29T02:44:39;2.85;;;0.90;;
40022;SDS011;25713;-35.352;149.036;2023-07-29T02:47:09;4.57;;;0.75;;
40022;SDS011;25713;-35.352;149.036;2023-07-29T02:49:38;4.40;;;0.80;;
40022;SDS011;25713;-35.352;149.036;2023-07-29T02:52:08;1.08;;;0.85;;
40022;SDS011;25713;-35.352;149.036;2023-07-29T02:54:37;1.80;;;0.90;;
40022;SDS011;25713;-35.352;149.036;2023-07-29T02:57:09;4.88;;;0.80;;
40022;SDS011;25713;-35.352;149.036;2023-07-29T02:59:39;2.40;;;0.90;;
40022;SDS011;25713;-35.352;149.036;2023-07-29T03:02:08;1.05;;;0.70;;
40022;SDS011;25713;-35.352;149.036;2023-07-29T03:04:38;2.38;;;0.80;;
40022;SDS011;25713;-35.352;149.036;2023-07-29T03:07:08;2.00;;;0.90;;
40022;SDS011;25713;-35.352;149.036;2023-07-29T03:09:37;1.90;;;0.70;;
40022;SDS011;25713;-35.352;149.036;2023-07-29T03:12:09;1.83;;;0.60;;
40022;SDS011;25713;-35.352;149.036;2023-07-29T03:14:39;1.95;;;0.80;;
40022;SDS011;25713;-35.352;149.036;2023-07-29T03:17:09;1.73;;;0.80;;
40022;SDS011;25713;-35.352;149.036;2023-07-29T03:19:38;1.58;;;0.73;;
40022;SDS011;25713;-35.352;149.036;2023-07-29T03:22:08;0.65;;;0.47;;
40022;SDS011;25713;-35.352;149.036;2023-07-29T03:24:37;1.27;;;0.90;;
40022;SDS011;25713;-35.352;149.036;2023-07-29T03:27:09;1.90;;;0.82;;
40022;SDS011;25713;-35.352;149.036;2023-07-29T03:29:38;1.13;;;0.63;;
40022;SDS011;25713;-35.352;149.036;2023-07-29T03:32:08;1.15;;;0.65;;
40022;SDS011;25713;-35.352;149.036;2023-07-29T03:34:39;1.17;;;0.80;;
40022;SDS011;25713;-35.352;149.036;2023-07-29T03:37:08;1.27;;;0.80;;
40022;SDS011;25713;-35.352;149.036;2023-07-29T03:39:38;2.60;;;0.80;;
40022;SDS011;25713;-35.352;149.036;2023-07-29T03:42:09;2.10;;;0.90;;
40022;SDS011;25713;-35.352;149.036;2023-07-29T03:44:39;4.00;;;1.10;;
40022;SDS011;25713;-35.352;149.036;2023-07-29T03:47:08;3.55;;;1.48;;
40022;SDS011;25713;-35.352;149.036;2023-07-29T03:49:40;2.38;;;1.00;;
40022;SDS011;25713;-35.352;149.036;2023-07-29T03:52:09;3.75;;;0.80;;
40022;SDS011;25713;-35.352;149.036;2023-07-29T03:54:41;1.48;;;0.80;;
40022;SDS011;25713;-35.352;149.036;2023-07-29T03:57:11;1.33;;;0.80;;
40022;SDS011;25713;-35.352;149.036;2023-07-29T03:59:40;2.38;;;1.02;;
40022;SDS011;25713;-35.352;149.036;2023-07-29T04:02:10;0.80;;;0.63;;
40022;SDS011;25713;-35.352;149.036;2023-07-29T04:04:40;4.18;;;0.90;;
40022;SDS011;25713;-35.352;149.036;2023-07-29T04:07:10;2.47;;;0.90;;
40022;SDS011;25713;-35.352;149.036;2023-07-29T04:09:42;2.22;;;1.27;;
40022;SDS011;25713;-35.352;149.036;2023-07-29T04:12:11;2.37;;;0.93;;
40022;SDS011;25713;-35.352;149.036;2023-07-29T04:14:41;2.42;;;0.90;;
40022;SDS011;25713;-35.352;149.036;2023-07-29T04:17:10;1.17;;;0.73;;
40022;SDS011;25713;-35.352;149.036;2023-07-29T04:19:40;1.30;;;0.70;;
40022;SDS011;25713;-35.352;149.036;2023-07-29T04:22:09;2.20;;;0.80;;
40022;SDS011;25713;-35.352;149.036;2023-07-29T04:24:39;1.52;;;0.98;;
40022;SDS011;25713;-35.352;149.036;2023-07-29T04:27:10;2.50;;;0.80;;
40022;SDS011;25713;-35.352;149.036;2023-07-29T04:29:40;2.00;;;1.00;;
40022;SDS011;25713;-35.352;149.036;2023-07-29T04:32:10;2.42;;;0.80;;
40022;SDS011;25713;-35.352;149.036;2023-07-29T04:34:39;2.60;;;1.05;;
40022;SDS011;25713;-35.352;149.036;2023-07-29T04:37:09;1.00;;;0.70;;
40022;SDS011;25713;-35.352;149.036;2023-07-29T04:39:38;1.80;;;0.70;;
40022;SDS011;25713;-35.352;149.036;2023-07-29T04:42:10;1.85;;;0.75;;
40022;SDS011;25713;-35.352;149.036;2023-07-29T04:44:40;3.72;;;0.70;;
40022;SDS011;25713;-35.352;149.036;2023-07-29T04:47:09;3.92;;;0.82;;
40022;SDS011;25713;-35.352;149.036;2023-07-29T04:49:39;3.25;;;0.77;;
40022;SDS011;25713;-35.352;149.036;2023-07-29T04:52:09;2.88;;;0.75;;
40022;SDS011;25713;-35.352;149.036;2023-07-29T04:54:39;1.65;;;0.77;;
40022;SDS011;25713;-35.352;149.036;2023-07-29T04:57:10;1.45;;;0.75;;
40022;SDS011;25713;-35.352;149.036;2023-07-29T04:59:40;1.58;;;0.80;;
40022;SDS011;25713;-35.352;149.036;2023-07-29T05:02:09;2.25;;;0.95;;
40022;SDS011;25713;-35.352;149.036;2023-07-29T05:04:39;1.45;;;0.73;;
40022;SDS011;25713;-35.352;149.036;2023-07-29T05:07:09;1.40;;;0.88;;
40022;SDS011;25713;-35.352;149.036;2023-07-29T05:09:39;3.90;;;1.10;;
40022;SDS011;25713;-35.352;149.036;2023-07-29T05:12:10;1.63;;;0.90;;
40022;SDS011;25713;-35.352;149.036;2023-07-29T05:14:40;1.75;;;0.80;;
40022;SDS011;25713;-35.352;149.036;2023-07-29T05:17:10;3.03;;;1.00;;
40022;SDS011;25713;-35.352;149.036;2023-07-29T05:19:40;1.60;;;0.80;;
40022;SDS011;25713;-35.352;149.036;2023-07-29T05:22:10;1.17;;;0.80;;
40022;SDS011;25713;-35.352;149.036;2023-07-29T05:24:39;1.15;;;0.77;;
40022;SDS011;25713;-35.352;149.036;2023-07-29T05:27:12;1.42;;;0.90;;
40022;SDS011;25713;-35.352;149.036;2023-07-29T05:29:42;2.60;;;0.93;;
40022;SDS011;25713;-35.352;149.036;2023-07-29T05:32:11;3.00;;;0.98;;
40022;SDS011;25713;-35.352;149.036;2023-07-29T05:34:43;2.13;;;0.70;;
40022;SDS011;25713;-35.352;149.036;2023-07-29T05:37:12;2.33;;;0.80;;
40022;SDS011;25713;-35.352;149.036;2023-07-29T05:39:42;2.92;;;1.20;;
40022;SDS011;25713;-35.352;149.036;2023-07-29T05:42:13;2.28;;;1.00;;
40022;SDS011;25713;-35.352;149.036;2023-07-29T05:44:43;1.42;;;0.63;;
40022;SDS011;25713;-35.352;149.036;2023-07-29T05:47:13;0.93;;;0.73;;
40022;SDS011;25713;-35.352;149.036;2023-07-29T05:49:43;4.43;;;1.00;;
40022;SDS011;25713;-35.352;149.036;2023-07-29T05:52:12;2.70;;;1.30;;
40022;SDS011;25713;-35.352;149.036;2023-07-29T05:54:42;2.08;;;0.80;;
40022;SDS011;25713;-35.352;149.036;2023-07-29T05:57:14;1.77;;;1.00;;
40022;SDS011;25713;-35.352;149.036;2023-07-29T05:59:44;1.42;;;0.80;;
40022;SDS011;25713;-35.352;149.036;2023-07-29T06:02:14;2.17;;;0.80;;
40022;SDS011;25713;-35.352;149.036;2023-07-29T06:04:43;2.55;;;0.95;;
40022;SDS011;25713;-35.352;149.036;2023-07-29T06:07:13;1.10;;;0.90;;
40022;SDS011;25713;-35.352;149.036;2023-07-29T06:09:42;2.17;;;0.88;;
40022;SDS011;25713;-35.352;149.036;2023-07-29T06:12:11;2.28;;;0.90;;
40022;SDS011;25713;-35.352;149.036;2023-07-29T06:14:43;1.65;;;0.88;;
40022;SDS011;25713;-35.352;149.036;2023-07-29T06:17:13;1.92;;;1.40;;
40022;SDS011;25713;-35.352;149.036;2023-07-29T06:19:42;1.95;;;1.13;;
40022;SDS011;25713;-35.352;149.036;2023-07-29T06:22:12;0.80;;;0.70;;
40022;SDS011;25713;-35.352;149.036;2023-07-29T06:24:42;1.20;;;0.80;;
40022;SDS011;25713;-35.352;149.036;2023-07-29T06:27:12;2.47;;;0.88;;
40022;SDS011;25713;-35.352;149.036;2023-07-29T06:29:43;3.03;;;1.13;;
40022;SDS011;25713;-35.352;149.036;2023-07-29T06:32:13;2.72;;;1.10;;
40022;SDS011;25713;-35.352;149.036;2023-07-29T06:34:42;3.85;;;1.08;;
40022;SDS011;25713;-35.352;149.036;2023-07-29T06:37:11;2.33;;;1.00;;
40022;SDS011;25713;-35.352;149.036;2023-07-29T06:39:41;3.47;;;0.90;;
40022;SDS011;25713;-35.352;149.036;2023-07-29T06:42:10;2.90;;;1.10;;
40022;SDS011;25713;-35.352;149.036;2023-07-29T06:44:42;2.63;;;0.82;;
40022;SDS011;25713;-35.352;149.036;2023-07-29T06:47:12;2.17;;;1.00;;
40022;SDS011;25713;-35.352;149.036;2023-07-29T06:49:41;1.63;;;1.00;;
40022;SDS011;25713;-35.352;149.036;2023-07-29T06:52:11;2.17;;;0.98;;
40022;SDS011;25713;-35.352;149.036;2023-07-29T06:54:40;1.45;;;1.00;;
40022;SDS011;25713;-35.352;149.036;2023-07-29T06:57:10;0.80;;;0.80;;
40022;SDS011;25713;-35.352;149.036;2023-07-29T06:59:42;3.00;;;1.00;;
40022;SDS011;25713;-35.352;149.036;2023-07-29T07:02:11;2.10;;;0.90;;
40022;SDS011;25713;-35.352;149.036;2023-07-29T07:04:41;4.93;;;1.40;;
40022;SDS011;25713;-35.352;149.036;2023-07-29T07:07:10;3.08;;;1.35;;
40022;SDS011;25713;-35.352;149.036;2023-07-29T07:09:40;2.17;;;1.02;;
40022;SDS011;25713;-35.352;149.036;2023-07-29T07:12:10;2.50;;;1.05;;
40022;SDS011;25713;-35.352;149.036;2023-07-29T07:14:39;2.15;;;1.00;;
40022;SDS011;25713;-35.352;149.036;2023-07-29T07:17:11;2.65;;;1.10;;
40022;SDS011;25713;-35.352;149.036;2023-07-29T07:19:41;1.75;;;1.02;;
40022;SDS011;25713;-35.352;149.036;2023-07-29T07:22:11;3.40;;;1.02;;
40022;SDS011;25713;-35.352;149.036;2023-07-29T07:24:40;1.75;;;1.00;;
40022;SDS011;25713;-35.352;149.036;2023-07-29T07:27:10;2.90;;;0.93;;
40022;SDS011;25713;-35.352;149.036;2023-07-29T07:29:39;4.75;;;1.10;;
40022;SDS011;25713;-35.352;149.036;2023-07-29T07:32:11;1.20;;;0.95;;
40022;SDS011;25713;-35.352;149.036;2023-07-29T07:34:40;2.97;;;1.27;;
40022;SDS011;25713;-35.352;149.036;2023-07-29T07:37:11;1.67;;;0.98;;
40022;SDS011;25713;-35.352;149.036;2023-07-29T07:39:41;1.75;;;1.17;;
40022;SDS011;25713;-35.352;149.036;2023-07-29T07:42:11;1.30;;;1.00;;
40022;SDS011;25713;-35.352;149.036;2023-07-29T07:47:13;2.15;;;0.93;;
40022;SDS011;25713;-35.352;149.036;2023-07-29T07:49:43;1.50;;;1.00;;
40022;SDS011;25713;-35.352;149.036;2023-07-29T07:52:12;1.88;;;0.88;;
40022;SDS011;25713;-35.352;149.036;2023-07-29T07:54:42;1.77;;;1.00;;
40022;SDS011;25713;-35.352;149.036;2023-07-29T07:57:11;1.13;;;1.00;;
40022;SDS011;25713;-35.352;149.036;2023-07-29T07:59:41;2.65;;;1.20;;
40022;SDS011;25713;-35.352;149.036;2023-07-29T08:02:12;1.40;;;1.10;;
40022;SDS011;25713;-35.352;149.036;2023-07-29T08:04:42;2.10;;;1.00;;
40022;SDS011;25713;-35.352;149.036;2023-07-29T08:07:12;2.47;;;0.90;;
40022;SDS011;25713;-35.352;149.036;2023-07-29T08:09:41;1.30;;;0.90;;
40022;SDS011;25713;-35.352;149.036;2023-07-29T08:12:11;2.20;;;0.98;;
40022;SDS011;25713;-35.352;149.036;2023-07-29T08:14:40;1.30;;;0.88;;
40022;SDS011;25713;-35.352;149.036;2023-07-29T08:17:10;0.95;;;0.77;;
40022;SDS011;25713;-35.352;149.036;2023-07-29T08:19:42;2.72;;;1.15;;
40022;SDS011;25713;-35.352;149.036;2023-07-29T08:22:12;1.35;;;1.00;;
40022;SDS011;25713;-35.352;149.036;2023-07-29T08:24:41;2.47;;;1.10;;
40022;SDS011;25713;-35.352;149.036;2023-07-29T08:27:11;3.20;;;1.00;;
40022;SDS011;25713;-35.352;149.036;2023-07-29T08:29:40;1.92;;;1.27;;
40022;SDS011;25713;-35.352;149.036;2023-07-29T08:32:10;2.83;;;1.30;;
40022;SDS011;25713;-35.352;149.036;2023-07-29T08:34:41;2.05;;;1.10;;
40022;SDS011;25713;-35.352;149.036;2023-07-29T08:37:10;2.50;;;1.20;;
40022;SDS011;25713;-35.352;149.036;2023-07-29T08:39:40;2.78;;;1.10;;
40022;SDS011;25713;-35.352;149.036;2023-07-29T08:42:11;3.20;;;1.45;;
40022;SDS011;25713;-35.352;149.036;2023-07-29T08:44:42;1.70;;;1.10;;
40022;SDS011;25713;-35.352;149.036;2023-07-29T08:47:15;3.85;;;1.63;;
40022;SDS011;25713;-35.352;149.036;2023-07-29T08:52:14;2.25;;;1.38;;
40022;SDS011;25713;-35.352;149.036;2023-07-29T08:54:44;2.15;;;1.50;;
40022;SDS011;25713;-35.352;149.036;2023-07-29T08:57:14;3.15;;;1.80;;
40022;SDS011;25713;-35.352;149.036;2023-07-29T08:59:43;2.85;;;1.55;;
40022;SDS011;25713;-35.352;149.036;2023-07-29T09:02:15;2.42;;;1.30;;
40022;SDS011;25713;-35.352;149.036;2023-07-29T09:04:46;3.47;;;1.80;;
40022;SDS011;25713;-35.352;149.036;2023-07-29T09:07:15;2.10;;;1.60;;
40022;SDS011;25713;-35.352;149.036;2023-07-29T09:09:45;4.10;;;1.50;;
40022;SDS011;25713;-35.352;149.036;2023-07-29T09:12:15;3.22;;;1.60;;
40022;SDS011;25713;-35.352;149.036;2023-07-29T09:14:44;2.50;;;1.60;;
40022;SDS011;25713;-35.352;149.036;2023-07-29T09:17:16;2.08;;;1.50;;
40022;SDS011;25713;-35.352;149.036;2023-07-29T09:19:47;2.78;;;1.70;;
40022;SDS011;25713;-35.352;149.036;2023-07-29T09:22:18;1.73;;;1.42;;
40022;SDS011;25713;-35.352;149.036;2023-07-29T09:24:48;2.20;;;1.85;;
40022;SDS011;25713;-35.352;149.036;2023-07-29T09:27:25;3.17;;;1.85;;
40022;SDS011;25713;-35.352;149.036;2023-07-29T09:29:56;3.20;;;1.75;;
40022;SDS011;25713;-35.352;149.036;2023-07-29T09:32:27;2.13;;;1.70;;
40022;SDS011;25713;-35.352;149.036;2023-07-29T09:34:57;2.63;;;1.50;;
40022;SDS011;25713;-35.352;149.036;2023-07-29T09:37:27;2.97;;;1.73;;
40022;SDS011;25713;-35.352;149.036;2023-07-29T09:39:56;3.00;;;1.90;;
40022;SDS011;25713;-35.352;149.036;2023-07-29T09:42:26;3.42;;;1.85;;
40022;SDS011;25713;-35.352;149.036;2023-07-29T09:44:55;4.22;;;1.83;;
40022;SDS011;25713;-35.352;149.036;2023-07-29T09:47:25;1.95;;;1.48;;
40022;SDS011;25713;-35.352;149.036;2023-07-29T09:49:57;1.80;;;1.53;;
40022;SDS011;25713;-35.352;149.036;2023-07-29T09:52:27;3.67;;;1.50;;
40022;SDS011;25713;-35.352;149.036;2023-07-29T09:54:56;2.58;;;1.60;;
40022;SDS011;25713;-35.352;149.036;2023-07-29T09:57:26;2.17;;;1.60;;
40022;SDS011;25713;-35.352;149.036;2023-07-29T09:59:56;2.88;;;1.52;;
40022;SDS011;25713;-35.352;149.036;2023-07-29T10:02:26;2.70;;;1.77;;
40022;SDS011;25713;-35.352;149.036;2023-07-29T10:04:58;2.75;;;1.77;;
40022;SDS011;25713;-35.352;149.036;2023-07-29T10:07:28;2.75;;;1.55;;
40022;SDS011;25713;-35.352;149.036;2023-07-29T10:09:58;3.75;;;1.60;;
40022;SDS011;25713;-35.352;149.036;2023-07-29T10:12:29;2.67;;;1.65;;
40022;SDS011;25713;-35.352;149.036;2023-07-29T10:14:59;3.60;;;1.85;;
40022;SDS011;25713;-35.352;149.036;2023-07-29T10:17:33;2.63;;;1.60;;
40022;SDS011;25713;-35.352;149.036;2023-07-29T10:20:04;2.53;;;1.73;;
40022;SDS011;25713;-35.352;149.036;2023-07-29T10:22:37;2.67;;;1.70;;
40022;SDS011;25713;-35.352;149.036;2023-07-29T10:25:08;3.75;;;1.80;;
40022;SDS011;25713;-35.352;149.036;2023-07-29T10:27:42;2.42;;;1.75;;
40022;SDS011;25713;-35.352;149.036;2023-07-29T10:30:17;2.88;;;1.80;;
40022;SDS011;25713;-35.352;149.036;2023-07-29T10:32:48;2.97;;;1.80;;
40022;SDS011;25713;-35.352;149.036;2023-07-29T10:35:19;4.03;;;2.22;;
40022;SDS011;25713;-35.352;149.036;2023-07-29T10:37:48;5.22;;;1.90;;
40022;SDS011;25713;-35.352;149.036;2023-07-29T10:40:18;2.90;;;1.50;;
40022;SDS011;25713;-35.352;149.036;2023-07-29T10:45:39;2.45;;;1.80;;
40022;SDS011;25713;-35.352;149.036;2023-07-29T10:48:12;2.50;;;1.60;;
40022;SDS011;25713;-35.352;149.036;2023-07-29T10:53:53;2.30;;;1.65;;
40022;SDS011;25713;-35.352;149.036;2023-07-29T10:56:29;2.28;;;1.70;;
40022;SDS011;25713;-35.352;149.036;2023-07-29T10:59:02;2.17;;;1.75;;
40022;SDS011;25713;-35.352;149.036;2023-07-29T11:01:50;2.42;;;1.60;;
40022;SDS011;25713;-35.352;149.036;2023-07-29T11:04:26;2.83;;;1.90;;
40022;SDS011;25713;-35.352;149.036;2023-07-29T11:10:02;2.27;;;1.63;;
40022;SDS011;25713;-35.352;149.036;2023-07-29T11:12:36;2.53;;;1.60;;
40022;SDS011;25713;-35.352;149.036;2023-07-29T11:15:13;2.75;;;1.88;;
40022;SDS011;25713;-35.352;149.036;2023-07-29T11:17:45;3.00;;;1.67;;
40022;SDS011;25713;-35.352;149.036;2023-07-29T11:20:18;2.35;;;1.50;;
40022;SDS011;25713;-35.352;149.036;2023-07-29T11:22:49;2.17;;;1.70;;
40022;SDS011;25713;-35.352;149.036;2023-07-29T11:25:20;3.28;;;1.63;;
40022;SDS011;25713;-35.352;149.036;2023-07-29T11:27:51;2.30;;;1.88;;
40022;SDS011;25713;-35.352;149.036;2023-07-29T11:30:22;2.90;;;1.63;;
40022;SDS011;25713;-35.352;149.036;2023-07-29T11:32:52;2.25;;;1.65;;
40022;SDS011;25713;-35.352;149.036;2023-07-29T11:35:24;2.20;;;1.80;;
40022;SDS011;25713;-35.352;149.036;2023-07-29T11:37:54;1.95;;;1.52;;
40022;SDS011;25713;-35.352;149.036;2023-07-29T11:40:24;3.22;;;1.80;;
40022;SDS011;25713;-35.352;149.036;2023-07-29T11:42:53;3.88;;;2.03;;
40022;SDS011;25713;-35.352;149.036;2023-07-29T11:45:23;2.78;;;1.83;;
40022;SDS011;25713;-35.352;149.036;2023-07-29T11:47:54;4.35;;;1.98;;
40022;SDS011;25713;-35.352;149.036;2023-07-29T11:50:25;4.05;;;1.95;;
40022;SDS011;25713;-35.352;149.036;2023-07-29T11:52:55;4.40;;;1.90;;
40022;SDS011;25713;-35.352;149.036;2023-07-29T11:55:25;2.85;;;1.85;;
40022;SDS011;25713;-35.352;149.036;2023-07-29T11:57:55;2.90;;;2.20;;
40022;SDS011;25713;-35.352;149.036;2023-07-29T12:00:25;2.60;;;1.88;;
40022;SDS011;25713;-35.352;149.036;2023-07-29T12:02:55;3.33;;;2.05;;
40022;SDS011;25713;-35.352;149.036;2023-07-29T12:05:27;2.58;;;1.60;;
40022;SDS011;25713;-35.352;149.036;2023-07-29T12:07:56;2.53;;;1.75;;
40022;SDS011;25713;-35.352;149.036;2023-07-29T12:10:26;2.78;;;2.10;;
40022;SDS011;25713;-35.352;149.036;2023-07-29T12:12:56;4.20;;;1.73;;
40022;SDS011;25713;-35.352;149.036;2023-07-29T12:15:26;2.88;;;2.08;;
40022;SDS011;25713;-35.352;149.036;2023-07-29T12:17:56;2.97;;;1.90;;
40022;SDS011;25713;-35.352;149.036;2023-07-29T12:20:29;4.35;;;2.40;;
40022;SDS011;25713;-35.352;149.036;2023-07-29T12:25:28;2.15;;;1.80;;
40022;SDS011;25713;-35.352;149.036;2023-07-29T12:28:02;2.97;;;1.80;;
40022;SDS011;25713;-35.352;149.036;2023-07-29T12:30:32;3.67;;;1.95;;
40022;SDS011;25713;-35.352;149.036;2023-07-29T12:33:01;3.45;;;2.03;;
40022;SDS011;25713;-35.352;149.036;2023-07-29T12:35:39;3.78;;;2.42;;
40022;SDS011;25713;-35.352;149.036;2023-07-29T12:38:09;3.03;;;2.28;;
40022;SDS011;25713;-35.352;149.036;2023-07-29T12:40:38;3.55;;;2.25;;
40022;SDS011;25713;-35.352;149.036;2023-07-29T12:43:08;2.95;;;2.15;;
40022;SDS011;25713;-35.352;149.036;2023-07-29T12:45:38;3.55;;;2.30;;
40022;SDS011;25713;-35.352;149.036;2023-07-29T12:48:07;2.72;;;2.30;;
40022;SDS011;25713;-35.352;149.036;2023-07-29T12:50:38;3.13;;;2.20;;
40022;SDS011;25713;-35.352;149.036;2023-07-29T12:53:09;3.45;;;2.05;;
40022;SDS011;25713;-35.352;149.036;2023-07-29T12:55:38;2.50;;;2.25;;
40022;SDS011;25713;-35.352;149.036;2023-07-29T12:58:08;3.80;;;2.00;;
40022;SDS011;25713;-35.352;149.036;2023-07-29T13:00:37;2.95;;;2.13;;
40022;SDS011;25713;-35.352;149.036;2023-07-29T13:03:07;4.28;;;2.40;;
40022;SDS011;25713;-35.352;149.036;2023-07-29T13:05:36;3.30;;;2.20;;
40022;SDS011;25713;-35.352;149.036;2023-07-29T13:08:08;4.47;;;2.10;;
40022;SDS011;25713;-35.352;149.036;2023-07-29T13:10:37;3.78;;;2.20;;
40022;SDS011;25713;-35.352;149.036;2023-07-29T13:13:07;2.58;;;2.10;;
40022;SDS011;25713;-35.352;149.036;2023-07-29T13:15:36;2.15;;;1.83;;
40022;SDS011;25713;-35.352;149.036;2023-07-29T13:18:06;3.53;;;2.25;;
40022;SDS011;25713;-35.352;149.036;2023-07-29T13:20:36;2.70;;;2.00;;
40022;SDS011;25713;-35.352;149.036;2023-07-29T13:23:07;3.05;;;2.10;;
40022;SDS011;25713;-35.352;149.036;2023-07-29T13:25:37;5.03;;;1.92;;
40022;SDS011;25713;-35.352;149.036;2023-07-29T13:28:06;3.50;;;2.30;;
40022;SDS011;25713;-35.352;149.036;2023-07-29T13:30:35;3.03;;;2.03;;
40022;SDS011;25713;-35.352;149.036;2023-07-29T13:33:05;3.40;;;2.00;;
40022;SDS011;25713;-35.352;149.036;2023-07-29T13:35:35;3.80;;;1.83;;
40022;SDS011;25713;-35.352;149.036;2023-07-29T13:38:06;2.72;;;1.73;;
40022;SDS011;25713;-35.352;149.036;2023-07-29T13:40:36;4.30;;;1.90;;
40022;SDS011;25713;-35.352;149.036;2023-07-29T13:43:06;3.13;;;1.98;;
40022;SDS011;25713;-35.352;149.036;2023-07-29T13:45:35;2.22;;;1.70;;
40022;SDS011;25713;-35.352;149.036;2023-07-29T13:48:04;3.20;;;1.73;;
40022;SDS011;25713;-35.352;149.036;2023-07-29T13:50:34;3.38;;;1.85;;
40022;SDS011;25713;-35.352;149.036;2023-07-29T13:53:03;1.90;;;1.70;;
40022;SDS011;25713;-35.352;149.036;2023-07-29T13:55:35;2.97;;;2.13;;
40022;SDS011;25713;-35.352;149.036;2023-07-29T13:58:05;3.72;;;1.75;;
40022;SDS011;25713;-35.352;149.036;2023-07-29T14:00:35;2.30;;;2.05;;
40022;SDS011;25713;-35.352;149.036;2023-07-29T14:03:04;3.30;;;2.05;;
40022;SDS011;25713;-35.352;149.036;2023-07-29T14:05:33;5.25;;;2.45;;
40022;SDS011;25713;-35.352;149.036;2023-07-29T14:08:03;2.35;;;1.90;;
40022;SDS011;25713;-35.352;149.036;2023-07-29T14:10:35;2.35;;;1.90;;
40022;SDS011;25713;-35.352;149.036;2023-07-29T14:13:04;4.95;;;2.15;;
40022;SDS011;25713;-35.352;149.036;2023-07-29T14:15:33;4.43;;;2.17;;
40022;SDS011;25713;-35.352;149.036;2023-07-29T14:18:03;3.33;;;2.00;;
40022;SDS011;25713;-35.352;149.036;2023-07-29T14:20:33;4.60;;;2.28;;
40022;SDS011;25713;-35.352;149.036;2023-07-29T14:23:03;3.30;;;2.20;;
40022;SDS011;25713;-35.352;149.036;2023-07-29T14:25:34;2.92;;;2.08;;
40022;SDS011;25713;-35.352;149.036;2023-07-29T14:28:04;3.78;;;2.10;;
40022;SDS011;25713;-35.352;149.036;2023-07-29T14:30:33;4.50;;;2.20;;
40022;SDS011;25713;-35.352;149.036;2023-07-29T14:33:03;3.13;;;1.90;;
40022;SDS011;25713;-35.352;149.036;2023-07-29T14:35:32;7.57;;;2.15;;
40022;SDS011;25713;-35.352;149.036;2023-07-29T14:38:01;2.40;;;1.83;;
40022;SDS011;25713;-35.352;149.036;2023-07-29T14:40:34;3.13;;;1.75;;
40022;SDS011;25713;-35.352;149.036;2023-07-29T14:43:03;2.58;;;1.90;;
40022;SDS011;25713;-35.352;149.036;2023-07-29T14:45:32;2.85;;;1.70;;